sensor_id;sensor_type;location;lat;lon;timestamp;pressure;altitude;pressure_sealevel;temperature;humidity
34925;BME280;21130;51.728;8.748;2023-04-24T00:01:19;98938.59;;;10.55;100.00
34925;BME280;21130;51.728;8.748;2023-04-24T00:03:45;98940.53;;;10.55;100.00
34925;BME280;21130;51.728;8.748;2023-04-24T00:06:13;98931.94;;;10.56;100.00
34925;BME280;21130;51.728;8.748;2023-04-24T00:08:43;98933.00;;;10.60;100.00
34925;BME280;21130;51.728;8.748;2023-04-24T00:11:09;98931.13;;;10.56;100.00
34925;BME280;21130;51.728;8.748;2023-04-24T00:13:37;98932.22;;;10.55;100.00
34925;BME280;21130;51.728;8.748;2023-04-24T00:16:05;98931.69;;;10.43;100.00
34925;BME280;21130;51.728;8.748;2023-04-24T00:18:32;98931.47;;;10.34;100.00
34925;BME280;21130;51.728;8.748;2023-04-24T00:21:04;98919.81;;;10.27;100.00
34925;BME280;21130;51.728;8.748;2023-04-24T00:23:31;98929.25;;;10.26;100.00
34925;BME280;21130;51.728;8.748;2023-04-24T00:25:58;98920.41;;;10.13;100.00
34925;BME280;21130;51.728;8.748;2023-04-24T00:28:25;98926.78;;;10.14;100.00
34925;BME280;21130;51.728;8.748;2023-04-24T00:30:51;98925.09;;;10.08;100.00
34925;BME280;21130;51.728;8.748;2023-04-24T00:33:18;98928.19;;;10.06;100.00
34925;BME280;21130;51.728;8.748;2023-04-24T00:35:46;98935.66;;;10.06;100.00
34925;BME280;21130;51.728;8.748;2023-04-24T00:38:13;98928.44;;;10.10;100.00
34925;BME280;21130;51.728;8.748;2023-04-24T00:40:39;98931.78;;;10.07;100.00
34925;BME280;21130;51.728;8.748;2023-04-24T00:43:07;98926.50;;;9.95;100.00
34925;BME280;21130;51.728;8.748;2023-04-24T00:45:34;98927.09;;;9.92;100.00
34925;BME280;21130;51.728;8.748;2023-04-24T00:48:01;98926.81;;;9.93;100.00
34925;BME280;21130;51.728;8.748;2023-04-24T00:50:28;98916.25;;;9.90;100.00
34925;BME280;21130;51.728;8.748;2023-04-24T00:52:55;98916.56;;;9.89;100.00
34925;BME280;21130;51.728;8.748;2023-04-24T00:55:22;98917.66;;;9.88;100.00
34925;BME280;21130;51.728;8.748;2023-04-24T00:57:48;98916.00;;;9.87;100.00
34925;BME280;21130;51.728;8.748;2023-04-24T01:00:17;98923.19;;;9.83;100.00
34925;BME280;21130;51.728;8.748;2023-04-24T01:03:00;98928.22;;;9.86;100.00
34925;BME280;21130;51.728;8.748;2023-04-24T01:05:33;98924.88;;;9.84;100.00
34925;BME280;21130;51.728;8.748;2023-04-24T01:08:01;98925.13;;;9.87;100.00
34925;BME280;21130;51.728;8.748;2023-04-24T01:10:29;98925.44;;;9.96;100.00
34925;BME280;21130;51.728;8.748;2023-04-24T01:12:58;98917.34;;;10.05;100.00
34925;BME280;21130;51.728;8.748;2023-04-24T01:15:26;98924.84;;;10.09;100.00
34925;BME280;21130;51.728;8.748;2023-04-24T01:17:52;98919.03;;;10.06;100.00
34925;BME280;21130;51.728;8.748;2023-04-24T01:20:19;98913.47;;;10.16;100.00
34925;BME280;21130;51.728;8.748;2023-04-24T01:22:47;98911.22;;;10.18;100.00
34925;BME280;21130;51.728;8.748;2023-04-24T01:25:14;98919.81;;;10.22;100.00
34925;BME280;21130;51.728;8.748;2023-04-24T01:27:40;98910.09;;;10.24;100.00
34925;BME280;21130;51.728;8.748;2023-04-24T01:30:08;98905.66;;;10.23;100.00
34925;BME280;21130;51.728;8.748;2023-04-24T01:32:35;98907.59;;;10.23;100.00
34925;BME280;21130;51.728;8.748;2023-04-24T01:35:03;98907.63;;;10.28;100.00
34925;BME280;21130;51.728;8.748;2023-04-24T01:37:29;98910.66;;;10.26;100.00
34925;BME280;21130;51.728;8.748;2023-04-24T01:39:58;98914.00;;;10.18;100.00
34925;BME280;21130;51.728;8.748;2023-04-24T01:42:29;98910.38;;;10.23;100.00
34925;BME280;21130;51.728;8.748;2023-04-24T01:44:56;98917.88;;;10.22;100.00
34925;BME280;21130;51.728;8.748;2023-04-24T01:47:26;98913.69;;;10.25;100.00
34925;BME280;21130;51.728;8.748;2023-04-24T01:49:52;98915.38;;;10.21;100.00
34925;BME280;21130;51.728;8.748;2023-04-24T01:52:19;98913.72;;;10.14;100.00
34925;BME280;21130;51.728;8.748;2023-04-24T01:54:45;98910.16;;;10.04;100.00
34925;BME280;21130;51.728;8.748;2023-04-24T01:57:14;98914.31;;;10.01;100.00
34925;BME280;21130;51.728;8.748;2023-04-24T01:59:41;98911.56;;;9.96;100.00
34925;BME280;21130;51.728;8.748;2023-04-24T02:02:08;98907.94;;;9.90;100.00
34925;BME280;21130;51.728;8.748;2023-04-24T02:04:34;98904.91;;;9.92;100.00
34925;BME280;21130;51.728;8.748;2023-04-24T02:07:01;98903.81;;;9.88;100.00
34925;BME280;21130;51.728;8.748;2023-04-24T02:09:27;98898.25;;;9.88;100.00
34925;BME280;21130;51.728;8.748;2023-04-24T02:11:53;98888.88;;;9.84;100.00
34925;BME280;21130;51.728;8.748;2023-04-24T02:14:22;98891.06;;;9.87;100.00
34925;BME280;21130;51.728;8.748;2023-04-24T02:16:49;98888.00;;;9.93;100.00
34925;BME280;21130;51.728;8.748;2023-04-24T02:19:15;98880.25;;;9.90;100.00
34925;BME280;21130;51.728;8.748;2023-04-24T02:21:42;98884.69;;;9.91;100.00
34925;BME280;21130;51.728;8.748;2023-04-24T02:24:08;98881.09;;;9.91;100.00
34925;BME280;21130;51.728;8.748;2023-04-24T02:26:35;98882.50;;;9.83;100.00
34925;BME280;21130;51.728;8.748;2023-04-24T02:29:01;98884.41;;;9.83;100.00
34925;BME280;21130;51.728;8.748;2023-04-24T02:31:29;98881.97;;;9.71;100.00
34925;BME280;21130;51.728;8.748;2023-04-24T02:33:55;98879.47;;;9.64;100.00
34925;BME280;21130;51.728;8.748;2023-04-24T02:36:22;98875.03;;;9.63;100.00
34925;BME280;21130;51.728;8.748;2023-04-24T02:38:48;98887.22;;;9.67;100.00
34925;BME280;21130;51.728;8.748;2023-04-24T02:41:15;98888.88;;;9.68;100.00
34925;BME280;21130;51.728;8.748;2023-04-24T02:43:42;98883.06;;;9.65;100.00
34925;BME280;21130;51.728;8.748;2023-04-24T02:46:08;98873.66;;;9.66;100.00
34925;BME280;21130;51.728;8.748;2023-04-24T02:48:36;98875.03;;;9.68;100.00
34925;BME280;21130;51.728;8.748;2023-04-24T02:51:02;98880.84;;;9.72;100.00
34925;BME280;21130;51.728;8.748;2023-04-24T02:53:29;98881.66;;;9.78;100.00
34925;BME280;21130;51.728;8.748;2023-04-24T02:55:56;98880.81;;;9.77;100.00
34925;BME280;21130;51.728;8.748;2023-04-24T02:58:22;98882.22;;;9.80;100.00
34925;BME280;21130;51.728;8.748;2023-04-24T03:00:53;98880.81;;;9.77;100.00
34925;BME280;21130;51.728;8.748;2023-04-24T03:03:19;98876.66;;;9.80;100.00
34925;BME280;21130;51.728;8.748;2023-04-24T03:05:47;98883.88;;;9.81;100.00
34925;BME280;21130;51.728;8.748;2023-04-24T03:08:14;98887.75;;;9.80;100.00
34925;BME280;21130;51.728;8.748;2023-04-24T03:10:40;98878.03;;;9.82;100.00
34925;BME280;21130;51.728;8.748;2023-04-24T03:13:06;98881.09;;;9.86;100.00
34925;BME280;21130;51.728;8.748;2023-04-24T03:15:33;98876.66;;;9.85;100.00
34925;BME280;21130;51.728;8.748;2023-04-24T03:17:59;98881.09;;;9.86;100.00
34925;BME280;21130;51.728;8.748;2023-04-24T03:20:27;98886.34;;;9.87;100.00
34925;BME280;21130;51.728;8.748;2023-04-24T03:22:55;98885.53;;;9.87;100.00
34925;BME280;21130;51.728;8.748;2023-04-24T03:25:22;98885.25;;;9.88;100.00
34925;BME280;21130;51.728;8.748;2023-04-24T03:27:48;98882.19;;;9.95;100.00
34925;BME280;21130;51.728;8.748;2023-04-24T03:30:15;98875.81;;;9.94;100.00
34925;BME280;21130;51.728;8.748;2023-04-24T03:32:41;98875.53;;;10.01;100.00
34925;BME280;21130;51.728;8.748;2023-04-24T03:35:08;98888.53;;;10.06;100.00
34925;BME280;21130;51.728;8.748;2023-04-24T03:37:34;98878.84;;;10.08;100.00
34925;BME280;21130;51.728;8.748;2023-04-24T03:40:03;98873.00;;;10.10;100.00
34925;BME280;21130;51.728;8.748;2023-04-24T03:42:31;98883.50;;;10.13;100.00
34925;BME280;21130;51.728;8.748;2023-04-24T03:44:57;98881.28;;;10.15;100.00
34925;BME280;21130;51.728;8.748;2023-04-24T03:47:23;98876.56;;;10.15;100.00
34925;BME280;21130;51.728;8.748;2023-04-24T03:49:50;98876.84;;;10.19;100.00
34925;BME280;21130;51.728;8.748;2023-04-24T03:52:17;98875.72;;;10.20;100.00
34925;BME280;21130;51.728;8.748;2023-04-24T03:54:43;98875.75;;;10.15;100.00
34925;BME280;21130;51.728;8.748;2023-04-24T03:57:11;98884.88;;;10.15;100.00
34925;BME280;21130;51.728;8.748;2023-04-24T03:59:37;98882.69;;;10.12;100.00
34925;BME280;21130;51.728;8.748;2023-04-24T04:02:04;98876.03;;;10.19;100.00
34925;BME280;21130;51.728;8.748;2023-04-24T04:04:32;98879.91;;;10.12;100.00
34925;BME280;21130;51.728;8.748;2023-04-24T04:06:58;98883.53;;;10.08;100.00
34925;BME280;21130;51.728;8.748;2023-04-24T04:09:26;98899.09;;;9.99;100.00
34925;BME280;21130;51.728;8.748;2023-04-24T04:11:52;98897.75;;;9.76;100.00
34925;BME280;21130;51.728;8.748;2023-04-24T04:14:20;98908.56;;;9.51;100.00
34925;BME280;21130;51.728;8.748;2023-04-24T04:16:47;98907.72;;;9.30;100.00
34925;BME280;21130;51.728;8.748;2023-04-24T04:19:13;98916.03;;;9.25;100.00
34925;BME280;21130;51.728;8.748;2023-04-24T04:21:39;98927.06;;;9.10;100.00
34925;BME280;21130;51.728;8.748;2023-04-24T04:24:06;98931.97;;;8.87;100.00
34925;BME280;21130;51.728;8.748;2023-04-24T04:26:32;98923.94;;;8.71;100.00
34925;BME280;21130;51.728;8.748;2023-04-24T04:29:00;98934.09;;;8.60;100.00
34925;BME280;21130;51.728;8.748;2023-04-24T04:31:29;98925.78;;;8.55;100.00
34925;BME280;21130;51.728;8.748;2023-04-24T04:33:56;98928.28;;;8.51;100.00
34925;BME280;21130;51.728;8.748;2023-04-24T04:36:22;98927.44;;;8.51;100.00
34925;BME280;21130;51.728;8.748;2023-04-24T04:38:49;98924.69;;;8.51;100.00
34925;BME280;21130;51.728;8.748;2023-04-24T04:41:16;98926.34;;;8.52;100.00
34925;BME280;21130;51.728;8.748;2023-04-24T04:43:43;98921.66;;;8.57;100.00
34925;BME280;21130;51.728;8.748;2023-04-24T04:46:09;98930.81;;;8.58;100.00
34925;BME280;21130;51.728;8.748;2023-04-24T04:48:37;98927.19;;;8.62;100.00
34925;BME280;21130;51.728;8.748;2023-04-24T04:51:04;98934.13;;;8.65;100.00
34925;BME280;21130;51.728;8.748;2023-04-24T04:53:31;98932.22;;;8.65;100.00
34925;BME280;21130;51.728;8.748;2023-04-24T04:55:57;98936.38;;;8.68;100.00
34925;BME280;21130;51.728;8.748;2023-04-24T04:58:24;98936.63;;;8.67;100.00
34925;BME280;21130;51.728;8.748;2023-04-24T05:00:51;98934.97;;;8.65;100.00
34925;BME280;21130;51.728;8.748;2023-04-24T05:03:18;98935.00;;;8.71;100.00
34925;BME280;21130;51.728;8.748;2023-04-24T05:05:46;98942.19;;;8.72;100.00
34925;BME280;21130;51.728;8.748;2023-04-24T05:08:13;98948.53;;;8.72;100.00
34925;BME280;21130;51.728;8.748;2023-04-24T05:10:39;98952.69;;;8.75;100.00
34925;BME280;21130;51.728;8.748;2023-04-24T05:13:06;98964.06;;;8.78;100.00
34925;BME280;21130;51.728;8.748;2023-04-24T05:15:32;98957.72;;;8.78;100.00
34925;BME280;21130;51.728;8.748;2023-04-24T05:17:59;98963.50;;;8.76;100.00
34925;BME280;21130;51.728;8.748;2023-04-24T05:20:26;98969.28;;;8.75;100.00
34925;BME280;21130;51.728;8.748;2023-04-24T05:22:54;98958.50;;;8.68;100.00
34925;BME280;21130;51.728;8.748;2023-04-24T05:25:20;98960.69;;;8.66;100.00
34925;BME280;21130;51.728;8.748;2023-04-24T05:27:46;98959.56;;;8.62;100.00
34925;BME280;21130;51.728;8.748;2023-04-24T05:30:13;98954.00;;;8.57;100.00
34925;BME280;21130;51.728;8.748;2023-04-24T05:32:41;98981.09;;;8.55;100.00
34925;BME280;21130;51.728;8.748;2023-04-24T05:35:08;98978.91;;;8.57;100.00
34925;BME280;21130;51.728;8.748;2023-04-24T05:37:34;98975.31;;;8.56;100.00
34925;BME280;21130;51.728;8.748;2023-04-24T05:40:03;98977.25;;;8.56;100.00
34925;BME280;21130;51.728;8.748;2023-04-24T05:42:30;98982.22;;;8.54;100.00
34925;BME280;21130;51.728;8.748;2023-04-24T05:44:57;98973.09;;;8.53;100.00
34925;BME280;21130;51.728;8.748;2023-04-24T05:47:23;98986.38;;;8.61;100.00
34925;BME280;21130;51.728;8.748;2023-04-24T05:49:51;98977.84;;;8.63;100.00
34925;BME280;21130;51.728;8.748;2023-04-24T05:52:18;98980.03;;;8.61;100.00
34925;BME280;21130;51.728;8.748;2023-04-24T05:54:44;98980.84;;;8.61;100.00
34925;BME280;21130;51.728;8.748;2023-04-24T05:57:12;98976.72;;;8.64;100.00
34925;BME280;21130;51.728;8.748;2023-04-24T05:59:40;98979.22;;;8.65;100.00
34925;BME280;21130;51.728;8.748;2023-04-24T06:02:07;98979.25;;;8.76;100.00
34925;BME280;21130;51.728;8.748;2023-04-24T06:04:33;98964.88;;;8.79;100.00
34925;BME280;21130;51.728;8.748;2023-04-24T06:07:00;98976.22;;;8.82;100.00
34925;BME280;21130;51.728;8.748;2023-04-24T06:09:26;98963.53;;;8.92;100.00
34925;BME280;21130;51.728;8.748;2023-04-24T06:11:53;98972.69;;;8.97;100.00
34925;BME280;21130;51.728;8.748;2023-04-24T06:14:21;98960.25;;;9.10;100.00
34925;BME280;21130;51.728;8.748;2023-04-24T06:16:47;98957.56;;;9.25;100.00
34925;BME280;21130;51.728;8.748;2023-04-24T06:19:14;98965.31;;;9.34;100.00
34925;BME280;21130;51.728;8.748;2023-04-24T06:21:40;98963.63;;;9.43;100.00
34925;BME280;21130;51.728;8.748;2023-04-24T06:24:06;98963.38;;;9.65;100.00
34925;BME280;21130;51.728;8.748;2023-04-24T06:26:33;98965.06;;;9.86;100.00
34925;BME280;21130;51.728;8.748;2023-04-24T06:29:00;98972.56;;;9.81;100.00
34925;BME280;21130;51.728;8.748;2023-04-24T06:31:27;98980.56;;;9.67;100.00
34925;BME280;21130;51.728;8.748;2023-04-24T06:33:54;98993.28;;;9.68;100.00
34925;BME280;21130;51.728;8.748;2023-04-24T06:36:20;98982.22;;;9.52;100.00
34925;BME280;21130;51.728;8.748;2023-04-24T06:38:47;98983.88;;;9.54;100.00
34925;BME280;21130;51.728;8.748;2023-04-24T06:41:13;98989.44;;;9.48;100.00
34925;BME280;21130;51.728;8.748;2023-04-24T06:43:40;98981.94;;;9.39;100.00
34925;BME280;21130;51.728;8.748;2023-04-24T06:46:06;98994.66;;;9.35;100.00
34925;BME280;21130;51.728;8.748;2023-04-24T06:48:39;98999.91;;;9.31;100.00
34925;BME280;21130;51.728;8.748;2023-04-24T06:51:05;98999.34;;;9.34;100.00
34925;BME280;21130;51.728;8.748;2023-04-24T06:53:32;99006.03;;;9.38;100.00
34925;BME280;21130;51.728;8.748;2023-04-24T06:55:58;99006.03;;;9.38;100.00
34925;BME280;21130;51.728;8.748;2023-04-24T06:58:25;99001.84;;;9.30;100.00
34925;BME280;21130;51.728;8.748;2023-04-24T07:00:51;99011.00;;;9.36;100.00
34925;BME280;21130;51.728;8.748;2023-04-24T07:03:18;99011.56;;;9.38;100.00
34925;BME280;21130;51.728;8.748;2023-04-24T07:05:46;99009.31;;;9.40;100.00
34925;BME280;21130;51.728;8.748;2023-04-24T07:08:13;99010.19;;;9.41;100.00
34925;BME280;21130;51.728;8.748;2023-04-24T07:10:52;99010.44;;;9.34;100.00
34925;BME280;21130;51.728;8.748;2023-04-24T07:13:18;99014.84;;;9.30;100.00
34925;BME280;21130;51.728;8.748;2023-04-24T07:15:45;99013.75;;;9.26;100.00
34925;BME280;21130;51.728;8.748;2023-04-24T07:18:14;99020.38;;;9.30;100.00
34925;BME280;21130;51.728;8.748;2023-04-24T07:20:40;99015.16;;;9.34;100.00
34925;BME280;21130;51.728;8.748;2023-04-24T07:23:08;99020.97;;;9.47;100.00
34925;BME280;21130;51.728;8.748;2023-04-24T07:25:34;99017.97;;;9.59;100.00
34925;BME280;21130;51.728;8.748;2023-04-24T07:28:01;99012.97;;;9.56;100.00
34925;BME280;21130;51.728;8.748;2023-04-24T07:30:27;99016.56;;;9.62;100.00
34925;BME280;21130;51.728;8.748;2023-04-24T07:32:54;99016.84;;;9.60;100.00
34925;BME280;21130;51.728;8.748;2023-04-24T07:35:20;99019.59;;;9.60;100.00
34925;BME280;21130;51.728;8.748;2023-04-24T07:37:47;99025.69;;;9.57;100.00
34925;BME280;21130;51.728;8.748;2023-04-24T07:40:15;99025.16;;;9.60;100.00
34925;BME280;21130;51.728;8.748;2023-04-24T07:42:42;99031.22;;;9.52;100.00
34925;BME280;21130;51.728;8.748;2023-04-24T07:45:09;99032.06;;;9.58;100.00
34925;BME280;21130;51.728;8.748;2023-04-24T07:47:36;99023.50;;;9.64;100.00
34925;BME280;21130;51.728;8.748;2023-04-24T07:50:05;99033.50;;;9.76;100.00
34925;BME280;21130;51.728;8.748;2023-04-24T07:52:32;99026.84;;;9.82;100.00
34925;BME280;21130;51.728;8.748;2023-04-24T07:54:58;99027.41;;;9.84;100.00
34925;BME280;21130;51.728;8.748;2023-04-24T07:57:26;99027.66;;;9.92;100.00
34925;BME280;21130;51.728;8.748;2023-04-24T07:59:53;99023.50;;;9.90;100.00
34925;BME280;21130;51.728;8.748;2023-04-24T08:02:19;99023.81;;;9.88;100.00
34925;BME280;21130;51.728;8.748;2023-04-24T08:04:53;99029.34;;;9.83;100.00
34925;BME280;21130;51.728;8.748;2023-04-24T08:07:20;99027.97;;;9.91;100.00
34925;BME280;21130;51.728;8.748;2023-04-24T08:09:46;99029.88;;;9.90;100.00
34925;BME280;21130;51.728;8.748;2023-04-24T08:12:13;99030.16;;;9.79;100.00
34925;BME280;21130;51.728;8.748;2023-04-24T08:14:41;99041.81;;;9.81;100.00
34925;BME280;21130;51.728;8.748;2023-04-24T08:17:07;99022.69;;;9.74;100.00
34925;BME280;21130;51.728;8.748;2023-04-24T08:19:34;99036.28;;;9.81;100.00
34925;BME280;21130;51.728;8.748;2023-04-24T08:22:00;99045.13;;;9.93;100.00
34925;BME280;21130;51.728;8.748;2023-04-24T08:24:27;99042.91;;;9.90;100.00
34925;BME280;21130;51.728;8.748;2023-04-24T08:26:54;99043.22;;;9.93;100.00
34925;BME280;21130;51.728;8.748;2023-04-24T08:29:21;99037.38;;;9.85;100.00
34925;BME280;21130;51.728;8.748;2023-04-24T08:31:49;99040.69;;;9.87;100.00
34925;BME280;21130;51.728;8.748;2023-04-24T08:34:16;99040.13;;;9.80;100.00
34925;BME280;21130;51.728;8.748;2023-04-24T08:36:42;99035.97;;;9.72;100.00
34925;BME280;21130;51.728;8.748;2023-04-24T08:39:09;99034.59;;;9.69;100.00
34925;BME280;21130;51.728;8.748;2023-04-24T08:41:36;99040.13;;;9.69;100.00
34925;BME280;21130;51.728;8.748;2023-04-24T08:44:03;99046.78;;;9.73;100.00
34925;BME280;21130;51.728;8.748;2023-04-24T08:46:30;99032.94;;;9.84;100.00
34925;BME280;21130;51.728;8.748;2023-04-24T08:48:58;99043.47;;;9.87;100.00
34925;BME280;21130;51.728;8.748;2023-04-24T08:51:26;99030.75;;;9.86;100.00
34925;BME280;21130;51.728;8.748;2023-04-24T08:53:54;99034.59;;;9.95;100.00
34925;BME280;21130;51.728;8.748;2023-04-24T08:56:21;99045.16;;;10.13;100.00
34925;BME280;21130;51.728;8.748;2023-04-24T08:58:50;99027.94;;;10.47;100.00
34925;BME280;21130;51.728;8.748;2023-04-24T09:01:17;99029.44;;;10.99;100.00
34925;BME280;21130;51.728;8.748;2023-04-24T09:03:45;99040.38;;;11.35;100.00
34925;BME280;21130;51.728;8.748;2023-04-24T09:06:13;99034.81;;;11.35;100.00
34925;BME280;21130;51.728;8.748;2023-04-24T09:08:41;99034.69;;;11.06;100.00
34925;BME280;21130;51.728;8.748;2023-04-24T09:11:09;99027.25;;;10.91;100.00
34925;BME280;21130;51.728;8.748;2023-04-24T09:13:36;99043.41;;;10.74;100.00
34925;BME280;21130;51.728;8.748;2023-04-24T09:16:03;99027.41;;;10.35;100.00
34925;BME280;21130;51.728;8.748;2023-04-24T09:18:29;99046.81;;;9.99;100.00
34925;BME280;21130;51.728;8.748;2023-04-24T09:21:03;99049.00;;;10.02;100.00
34925;BME280;21130;51.728;8.748;2023-04-24T09:23:32;99046.25;;;9.97;100.00
34925;BME280;21130;51.728;8.748;2023-04-24T09:26:00;99041.25;;;10.04;100.00
34925;BME280;21130;51.728;8.748;2023-04-24T09:28:29;99032.38;;;10.23;100.00
34925;BME280;21130;51.728;8.748;2023-04-24T09:31:04;99050.69;;;10.19;100.00
34925;BME280;21130;51.728;8.748;2023-04-24T09:33:30;99049.84;;;10.23;100.00
34925;BME280;21130;51.728;8.748;2023-04-24T09:35:59;99046.22;;;10.17;100.00
34925;BME280;21130;51.728;8.748;2023-04-24T09:38:34;99045.69;;;10.10;100.00
34925;BME280;21130;51.728;8.748;2023-04-24T09:41:02;99048.47;;;10.00;100.00
34925;BME280;21130;51.728;8.748;2023-04-24T09:43:29;99054.28;;;9.99;100.00
34925;BME280;21130;51.728;8.748;2023-04-24T09:45:56;99054.56;;;9.92;100.00
34925;BME280;21130;51.728;8.748;2023-04-24T09:48:30;99052.91;;;9.81;100.00
34925;BME280;21130;51.728;8.748;2023-04-24T09:50:57;99062.59;;;9.78;100.00
34925;BME280;21130;51.728;8.748;2023-04-24T09:53:24;99067.56;;;9.71;100.00
34925;BME280;21130;51.728;8.748;2023-04-24T09:55:52;99068.69;;;9.85;100.00
34925;BME280;21130;51.728;8.748;2023-04-24T09:58:24;99052.34;;;10.09;100.00
34925;BME280;21130;51.728;8.748;2023-04-24T10:00:53;99054.56;;;10.48;100.00
34925;BME280;21130;51.728;8.748;2023-04-24T10:03:20;99060.06;;;10.79;100.00
34925;BME280;21130;51.728;8.748;2023-04-24T10:05:47;99056.78;;;10.51;100.00
34925;BME280;21130;51.728;8.748;2023-04-24T10:08:13;99060.97;;;10.28;100.00
34925;BME280;21130;51.728;8.748;2023-04-24T10:10:41;99065.94;;;10.01;100.00
34925;BME280;21130;51.728;8.748;2023-04-24T10:13:11;99062.31;;;9.90;100.00
34925;BME280;21130;51.728;8.748;2023-04-24T10:15:38;99070.63;;;9.80;100.00
34925;BME280;21130;51.728;8.748;2023-04-24T10:18:06;99079.47;;;9.71;100.00
34925;BME280;21130;51.728;8.748;2023-04-24T10:20:34;99087.09;;;9.23;100.00
34925;BME280;21130;51.728;8.748;2023-04-24T10:23:00;99085.28;;;8.92;100.00
34925;BME280;21130;51.728;8.748;2023-04-24T10:25:29;99103.88;;;9.01;100.00
34925;BME280;21130;51.728;8.748;2023-04-24T10:27:56;99105.03;;;9.11;100.00
34925;BME280;21130;51.728;8.748;2023-04-24T10:30:27;99091.69;;;9.02;100.00
34925;BME280;21130;51.728;8.748;2023-04-24T10:32:54;99094.31;;;9.29;100.00
34925;BME280;21130;51.728;8.748;2023-04-24T10:35:22;99086.91;;;9.50;100.00
34925;BME280;21130;51.728;8.748;2023-04-24T10:37:54;99113.78;;;9.60;100.00
34925;BME280;21130;51.728;8.748;2023-04-24T10:40:26;99117.63;;;9.44;100.00
34925;BME280;21130;51.728;8.748;2023-04-24T10:42:53;99107.31;;;9.29;100.00
34925;BME280;21130;51.728;8.748;2023-04-24T10:45:39;99112.16;;;8.96;100.00
34925;BME280;21130;51.728;8.748;2023-04-24T10:48:26;99141.34;;;8.77;100.00
34925;BME280;21130;51.728;8.748;2023-04-24T10:50:53;99126.72;;;8.81;100.00
34925;BME280;21130;51.728;8.748;2023-04-24T10:53:21;99148.78;;;8.71;100.00
34925;BME280;21130;51.728;8.748;2023-04-24T10:55:50;99145.56;;;8.47;100.00
34925;BME280;21130;51.728;8.748;2023-04-24T10:58:21;99138.16;;;8.20;100.00
34925;BME280;21130;51.728;8.748;2023-04-24T11:00:57;99143.47;;;8.32;100.00
34925;BME280;21130;51.728;8.748;2023-04-24T11:03:25;99159.69;;;8.18;100.00
34925;BME280;21130;51.728;8.748;2023-04-24T11:05:55;99150.06;;;8.26;100.00
34925;BME280;21130;51.728;8.748;2023-04-24T11:08:27;99158.84;;;8.18;100.00
34925;BME280;21130;51.728;8.748;2023-04-24T11:10:56;99165.63;;;8.05;100.00
34925;BME280;21130;51.728;8.748;2023-04-24T11:13:24;99172.53;;;8.03;100.00
34925;BME280;21130;51.728;8.748;2023-04-24T11:16:14;99168.13;;;8.07;100.00
34925;BME280;21130;51.728;8.748;2023-04-24T11:18:42;99165.63;;;8.05;100.00
34925;BME280;21130;51.728;8.748;2023-04-24T11:21:11;99172.66;;;7.91;100.00
34925;BME280;21130;51.728;8.748;2023-04-24T11:23:38;99173.75;;;7.90;100.00
34925;BME280;21130;51.728;8.748;2023-04-24T11:26:11;99186.91;;;7.77;100.00
34925;BME280;21130;51.728;8.748;2023-04-24T11:28:44;99187.50;;;7.85;100.00
34925;BME280;21130;51.728;8.748;2023-04-24T11:31:36;99193.03;;;7.85;100.00
34925;BME280;21130;51.728;8.748;2023-04-24T11:34:07;99200.47;;;7.84;100.00
34925;BME280;21130;51.728;8.748;2023-04-24T11:36:34;99198.72;;;7.73;100.00
34925;BME280;21130;51.728;8.748;2023-04-24T11:39:01;99209.69;;;7.68;100.00
34925;BME280;21130;51.728;8.748;2023-04-24T11:41:28;99225.16;;;7.69;100.00
34925;BME280;21130;51.728;8.748;2023-04-24T11:43:55;99226.28;;;7.68;100.00
34925;BME280;21130;51.728;8.748;2023-04-24T11:46:21;99227.34;;;7.67;100.00
34925;BME280;21130;51.728;8.748;2023-04-24T11:48:49;99239.56;;;7.71;100.00
34925;BME280;21130;51.728;8.748;2023-04-24T11:51:15;99238.84;;;7.58;100.00
34925;BME280;21130;51.728;8.748;2023-04-24T11:53:42;99241.66;;;7.64;100.00
34925;BME280;21130;51.728;8.748;2023-04-24T11:56:09;99247.84;;;7.71;100.00
34925;BME280;21130;51.728;8.748;2023-04-24T11:58:35;99244.09;;;7.82;100.00
34925;BME280;21130;51.728;8.748;2023-04-24T12:01:02;99258.88;;;7.71;100.00
34925;BME280;21130;51.728;8.748;2023-04-24T12:03:29;99261.13;;;7.74;100.00
34925;BME280;21130;51.728;8.748;2023-04-24T12:06:06;99257.59;;;7.56;100.00
34925;BME280;21130;51.728;8.748;2023-04-24T12:08:33;99267.56;;;7.57;100.00
34925;BME280;21130;51.728;8.748;2023-04-24T12:11:00;99292.25;;;7.47;100.00
34925;BME280;21130;51.728;8.748;2023-04-24T12:13:27;99291.47;;;7.30;100.00
34925;BME280;21130;51.728;8.748;2023-04-24T12:15:54;99302.75;;;7.11;100.00
34925;BME280;21130;51.728;8.748;2023-04-24T12:18:22;99313.53;;;6.96;100.00
34925;BME280;21130;51.728;8.748;2023-04-24T12:20:48;99325.41;;;6.97;100.00
34925;BME280;21130;51.728;8.748;2023-04-24T12:23:16;99332.84;;;6.96;100.00
34925;BME280;21130;51.728;8.748;2023-04-24T12:25:44;99334.50;;;6.97;100.00
34925;BME280;21130;51.728;8.748;2023-04-24T12:28:11;99342.13;;;7.07;100.00
34925;BME280;21130;51.728;8.748;2023-04-24T12:30:40;99360.59;;;7.06;100.00
34925;BME280;21130;51.728;8.748;2023-04-24T12:33:09;99365.34;;;6.94;100.00
34925;BME280;21130;51.728;8.748;2023-04-24T12:35:36;99356.41;;;6.87;100.00
34925;BME280;21130;51.728;8.748;2023-04-24T12:38:06;99363.09;;;6.91;100.00
34925;BME280;21130;51.728;8.748;2023-04-24T12:40:34;99373.41;;;6.96;100.00
34925;BME280;21130;51.728;8.748;2023-04-24T12:43:01;99374.41;;;7.06;100.00
34925;BME280;21130;51.728;8.748;2023-04-24T12:45:27;99377.16;;;7.06;100.00
34925;BME280;21130;51.728;8.748;2023-04-24T12:47:54;99383.69;;;7.00;100.00
34925;BME280;21130;51.728;8.748;2023-04-24T12:50:20;99384.66;;;6.94;100.00
34925;BME280;21130;51.728;8.748;2023-04-24T12:52:47;99385.69;;;6.88;100.00
34925;BME280;21130;51.728;8.748;2023-04-24T12:55:14;99390.59;;;6.86;100.00
34925;BME280;21130;51.728;8.748;2023-04-24T12:57:42;99398.28;;;6.84;100.00
34925;BME280;21130;51.728;8.748;2023-04-24T13:00:08;99395.78;;;6.82;100.00